sensor_id;sensor_type;location;lat;lon;timestamp;temperature;humidity
75786;DHT22;64402;44.708;37.644;2023-04-24T00:00:36;9.31;85.93
75786;DHT22;64402;44.708;37.644;2023-04-24T00:03:03;9.32;86.35
75786;DHT22;64402;44.708;37.644;2023-04-24T00:05:29;9.37;86.38
75786;DHT22;64402;44.708;37.644;2023-04-24T00:07:56;9.44;86.08
75786;DHT22;64402;44.708;37.644;2023-04-24T00:10:22;9.46;85.96
75786;DHT22;64402;44.708;37.644;2023-04-24T00:12:48;9.52;85.37
75786;DHT22;64402;44.708;37.644;2023-04-24T00:15:14;9.59;85.29
75786;DHT22;64402;44.708;37.644;2023-04-24T00:17:40;9.61;84.90
75786;DHT22;64402;44.708;37.644;2023-04-24T00:20:07;9.65;84.54
75786;DHT22;64402;44.708;37.644;2023-04-24T00:22:33;9.64;84.06
75786;DHT22;64402;44.708;37.644;2023-04-24T00:24:59;9.63;83.99
75786;DHT22;64402;44.708;37.644;2023-04-24T00:27:26;9.62;83.96
75786;DHT22;64402;44.708;37.644;2023-04-24T00:29:52;9.66;83.78
75786;DHT22;64402;44.708;37.644;2023-04-24T00:32:18;9.64;83.25
75786;DHT22;64402;44.708;37.644;2023-04-24T00:34:45;9.60;82.71
75786;DHT22;64402;44.708;37.644;2023-04-24T00:37:11;9.61;83.46
75786;DHT22;64402;44.708;37.644;2023-04-24T00:39:37;9.61;82.48
75786;DHT22;64402;44.708;37.644;2023-04-24T00:42:03;9.55;81.88
75786;DHT22;64402;44.708;37.644;2023-04-24T00:44:33;9.55;82.29
75786;DHT22;64402;44.708;37.644;2023-04-24T00:47:01;9.53;82.29
75786;DHT22;64402;44.708;37.644;2023-04-24T00:49:27;9.52;82.33
75786;DHT22;64402;44.708;37.644;2023-04-24T00:51:53;9.52;81.72
75786;DHT22;64402;44.708;37.644;2023-04-24T00:54:20;9.47;81.22
75786;DHT22;64402;44.708;37.644;2023-04-24T00:56:46;9.41;82.38
75786;DHT22;64402;44.708;37.644;2023-04-24T00:59:13;9.39;82.38
75786;DHT22;64402;44.708;37.644;2023-04-24T01:01:40;9.38;82.65
75786;DHT22;64402;44.708;37.644;2023-04-24T01:04:08;9.34;82.64
75786;DHT22;64402;44.708;37.644;2023-04-24T01:06:38;9.27;81.46
75786;DHT22;64402;44.708;37.644;2023-04-24T01:09:05;9.22;82.26
75786;DHT22;64402;44.708;37.644;2023-04-24T01:11:34;9.18;82.54
75786;DHT22;64402;44.708;37.644;2023-04-24T01:14:01;9.17;82.22
75786;DHT22;64402;44.708;37.644;2023-04-24T01:16:27;9.14;83.13
75786;DHT22;64402;44.708;37.644;2023-04-24T01:18:54;9.10;82.87
75786;DHT22;64402;44.708;37.644;2023-04-24T01:21:21;9.09;82.71
75786;DHT22;64402;44.708;37.644;2023-04-24T01:23:47;9.09;82.94
75786;DHT22;64402;44.708;37.644;2023-04-24T01:26:15;9.02;82.55
75786;DHT22;64402;44.708;37.644;2023-04-24T01:28:42;8.98;82.83
75786;DHT22;64402;44.708;37.644;2023-04-24T01:31:08;8.94;82.94
75786;DHT22;64402;44.708;37.644;2023-04-24T01:33:34;8.88;83.23
75786;DHT22;64402;44.708;37.644;2023-04-24T01:36:01;8.83;83.45
75786;DHT22;64402;44.708;37.644;2023-04-24T01:38:27;8.78;83.73
75786;DHT22;64402;44.708;37.644;2023-04-24T01:40:53;8.75;85.09
75786;DHT22;64402;44.708;37.644;2023-04-24T01:43:20;8.76;84.96
75786;DHT22;64402;44.708;37.644;2023-04-24T01:45:46;8.75;84.95
75786;DHT22;64402;44.708;37.644;2023-04-24T01:48:13;8.75;84.74
75786;DHT22;64402;44.708;37.644;2023-04-24T01:50:39;8.73;85.06
75786;DHT22;64402;44.708;37.644;2023-04-24T01:53:05;8.72;85.32
75786;DHT22;64402;44.708;37.644;2023-04-24T01:55:32;8.70;85.33
75786;DHT22;64402;44.708;37.644;2023-04-24T01:57:59;8.70;85.50
75786;DHT22;64402;44.708;37.644;2023-04-24T02:00:26;8.73;85.22
75786;DHT22;64402;44.708;37.644;2023-04-24T02:02:52;8.77;85.06
75786;DHT22;64402;44.708;37.644;2023-04-24T02:05:19;8.81;84.80
75786;DHT22;64402;44.708;37.644;2023-04-24T02:07:45;8.82;84.88
75786;DHT22;64402;44.708;37.644;2023-04-24T02:10:11;8.88;84.64
75786;DHT22;64402;44.708;37.644;2023-04-24T02:12:38;8.93;84.80
75786;DHT22;64402;44.708;37.644;2023-04-24T02:15:04;8.97;84.58
75786;DHT22;64402;44.708;37.644;2023-04-24T02:17:31;8.98;84.71
75786;DHT22;64402;44.708;37.644;2023-04-24T02:19:57;9.02;84.64
75786;DHT22;64402;44.708;37.644;2023-04-24T02:22:23;9.06;84.55
75786;DHT22;64402;44.708;37.644;2023-04-24T02:24:49;9.10;84.53
75786;DHT22;64402;44.708;37.644;2023-04-24T02:27:15;9.16;84.51
75786;DHT22;64402;44.708;37.644;2023-04-24T02:29:42;9.16;84.00
75786;DHT22;64402;44.708;37.644;2023-04-24T02:32:08;9.11;84.11
75786;DHT22;64402;44.708;37.644;2023-04-24T02:34:38;9.11;84.45
75786;DHT22;64402;44.708;37.644;2023-04-24T02:37:04;9.08;84.73
75786;DHT22;64402;44.708;37.644;2023-04-24T02:39:30;9.14;85.09
75786;DHT22;64402;44.708;37.644;2023-04-24T02:41:56;9.18;85.09
75786;DHT22;64402;44.708;37.644;2023-04-24T02:44:22;9.26;85.14
75786;DHT22;64402;44.708;37.644;2023-04-24T02:46:49;9.34;85.19
75786;DHT22;64402;44.708;37.644;2023-04-24T02:49:15;9.41;84.75
75786;DHT22;64402;44.708;37.644;2023-04-24T02:51:42;9.50;84.74
75786;DHT22;64402;44.708;37.644;2023-04-24T02:54:08;9.55;84.95
75786;DHT22;64402;44.708;37.644;2023-04-24T02:56:38;9.68;84.70
75786;DHT22;64402;44.708;37.644;2023-04-24T02:59:04;9.76;84.70
75786;DHT22;64402;44.708;37.644;2023-04-24T03:01:30;9.85;84.74
75786;DHT22;64402;44.708;37.644;2023-04-24T03:03:57;9.95;84.26
75786;DHT22;64402;44.708;37.644;2023-04-24T03:06:24;10.03;84.25
75786;DHT22;64402;44.708;37.644;2023-04-24T03:08:50;10.11;84.55
75786;DHT22;64402;44.708;37.644;2023-04-24T03:11:16;10.24;83.88
75786;DHT22;64402;44.708;37.644;2023-04-24T03:13:43;10.31;83.60
75786;DHT22;64402;44.708;37.644;2023-04-24T03:16:09;10.40;83.46
75786;DHT22;64402;44.708;37.644;2023-04-24T03:18:36;10.50;83.23
75786;DHT22;64402;44.708;37.644;2023-04-24T03:21:02;10.60;82.92
75786;DHT22;64402;44.708;37.644;2023-04-24T03:23:29;10.68;82.61
75786;DHT22;64402;44.708;37.644;2023-04-24T03:25:55;10.80;82.66
75786;DHT22;64402;44.708;37.644;2023-04-24T03:28:22;10.93;81.93
75786;DHT22;64402;44.708;37.644;2023-04-24T03:30:48;11.05;80.89
75786;DHT22;64402;44.708;37.644;2023-04-24T03:33:14;11.15;80.20
75786;DHT22;64402;44.708;37.644;2023-04-24T03:35:41;11.28;80.67
75786;DHT22;64402;44.708;37.644;2023-04-24T03:38:07;11.39;79.74
75786;DHT22;64402;44.708;37.644;2023-04-24T03:40:34;11.49;78.46
75786;DHT22;64402;44.708;37.644;2023-04-24T03:43:01;11.62;78.24
75786;DHT22;64402;44.708;37.644;2023-04-24T03:45:28;11.75;77.51
75786;DHT22;64402;44.708;37.644;2023-04-24T03:47:54;11.85;77.27
75786;DHT22;64402;44.708;37.644;2023-04-24T03:50:21;11.93;77.08
75786;DHT22;64402;44.708;37.644;2023-04-24T03:52:47;11.98;76.88
75786;DHT22;64402;44.708;37.644;2023-04-24T03:55:13;12.10;77.07
75786;DHT22;64402;44.708;37.644;2023-04-24T03:57:40;12.18;77.34
75786;DHT22;64402;44.708;37.644;2023-04-24T04:00:07;12.27;76.79
75786;DHT22;64402;44.708;37.644;2023-04-24T04:02:34;12.38;76.99
75786;DHT22;64402;44.708;37.644;2023-04-24T04:05:01;12.45;76.93
75786;DHT22;64402;44.708;37.644;2023-04-24T04:07:28;12.50;76.47
75786;DHT22;64402;44.708;37.644;2023-04-24T04:09:55;12.63;76.33
75786;DHT22;64402;44.708;37.644;2023-04-24T04:12:22;12.75;76.05
75786;DHT22;64402;44.708;37.644;2023-04-24T04:14:48;12.85;75.54
75786;DHT22;64402;44.708;37.644;2023-04-24T04:17:14;12.94;75.33
75786;DHT22;64402;44.708;37.644;2023-04-24T04:19:41;13.00;75.14
75786;DHT22;64402;44.708;37.644;2023-04-24T04:22:08;13.05;75.27
75786;DHT22;64402;44.708;37.644;2023-04-24T04:24:34;13.10;75.69
75786;DHT22;64402;44.708;37.644;2023-04-24T04:27:04;13.21;75.29
75786;DHT22;64402;44.708;37.644;2023-04-24T04:29:31;13.34;75.31
75786;DHT22;64402;44.708;37.644;2023-04-24T04:31:58;13.46;74.38
75786;DHT22;64402;44.708;37.644;2023-04-24T04:34:24;13.62;73.83
75786;DHT22;64402;44.708;37.644;2023-04-24T04:36:51;13.71;73.97
75786;DHT22;64402;44.708;37.644;2023-04-24T04:39:17;13.82;73.96
75786;DHT22;64402;44.708;37.644;2023-04-24T04:41:44;13.90;73.03
75786;DHT22;64402;44.708;37.644;2023-04-24T04:44:14;14.01;72.12
75786;DHT22;64402;44.708;37.644;2023-04-24T04:46:41;14.05;71.28
75786;DHT22;64402;44.708;37.644;2023-04-24T04:49:08;14.08;71.22
75786;DHT22;64402;44.708;37.644;2023-04-24T04:51:34;14.11;71.63
75786;DHT22;64402;44.708;37.644;2023-04-24T04:54:01;14.28;72.09
75786;DHT22;64402;44.708;37.644;2023-04-24T04:56:28;14.33;70.77
75786;DHT22;64402;44.708;37.644;2023-04-24T04:58:54;14.37;71.11
75786;DHT22;64402;44.708;37.644;2023-04-24T05:01:20;14.47;70.57
75786;DHT22;64402;44.708;37.644;2023-04-24T05:03:49;14.52;70.94
75786;DHT22;64402;44.708;37.644;2023-04-24T05:06:15;14.56;71.21
75786;DHT22;64402;44.708;37.644;2023-04-24T05:08:42;14.57;70.92
75786;DHT22;64402;44.708;37.644;2023-04-24T05:11:08;14.58;70.87
75786;DHT22;64402;44.708;37.644;2023-04-24T05:13:34;14.62;70.73
75786;DHT22;64402;44.708;37.644;2023-04-24T05:16:01;14.60;70.73
75786;DHT22;64402;44.708;37.644;2023-04-24T05:18:27;14.54;71.23
75786;DHT22;64402;44.708;37.644;2023-04-24T05:20:54;14.47;70.44
75786;DHT22;64402;44.708;37.644;2023-04-24T05:23:20;14.45;70.95
75786;DHT22;64402;44.708;37.644;2023-04-24T05:25:49;14.43;70.23
75786;DHT22;64402;44.708;37.644;2023-04-24T05:28:16;14.42;70.52
75786;DHT22;64402;44.708;37.644;2023-04-24T05:30:42;14.44;70.79
75786;DHT22;64402;44.708;37.644;2023-04-24T05:33:08;14.44;69.91
75786;DHT22;64402;44.708;37.644;2023-04-24T05:35:35;14.40;70.32
75786;DHT22;64402;44.708;37.644;2023-04-24T05:38:02;14.42;70.47
75786;DHT22;64402;44.708;37.644;2023-04-24T05:40:29;14.44;69.87
75786;DHT22;64402;44.708;37.644;2023-04-24T05:42:55;14.55;70.24
75786;DHT22;64402;44.708;37.644;2023-04-24T05:45:21;14.68;70.10
75786;DHT22;64402;44.708;37.644;2023-04-24T05:47:47;14.68;69.83
75786;DHT22;64402;44.708;37.644;2023-04-24T05:50:14;14.73;69.98
75786;DHT22;64402;44.708;37.644;2023-04-24T05:52:40;14.80;70.33
75786;DHT22;64402;44.708;37.644;2023-04-24T05:55:07;14.85;70.09
75786;DHT22;64402;44.708;37.644;2023-04-24T05:57:33;14.84;69.50
75786;DHT22;64402;44.708;37.644;2023-04-24T05:59:59;14.79;68.75
75786;DHT22;64402;44.708;37.644;2023-04-24T06:02:25;14.83;69.15
75786;DHT22;64402;44.708;37.644;2023-04-24T06:04:53;14.89;69.27
75786;DHT22;64402;44.708;37.644;2023-04-24T06:07:19;14.94;69.24
75786;DHT22;64402;44.708;37.644;2023-04-24T06:09:46;14.89;68.82
75786;DHT22;64402;44.708;37.644;2023-04-24T06:12:12;14.83;69.06
75786;DHT22;64402;44.708;37.644;2023-04-24T06:14:39;14.86;69.20
75786;DHT22;64402;44.708;37.644;2023-04-24T06:17:05;14.88;68.97
75786;DHT22;64402;44.708;37.644;2023-04-24T06:19:31;14.81;69.55
75786;DHT22;64402;44.708;37.644;2023-04-24T06:21:57;14.75;69.17
75786;DHT22;64402;44.708;37.644;2023-04-24T06:24:27;14.75;69.75
75786;DHT22;64402;44.708;37.644;2023-04-24T06:26:53;14.85;69.48
75786;DHT22;64402;44.708;37.644;2023-04-24T06:29:20;14.95;69.33
75786;DHT22;64402;44.708;37.644;2023-04-24T06:31:46;15.04;68.98
75786;DHT22;64402;44.708;37.644;2023-04-24T06:34:12;15.03;68.47
75786;DHT22;64402;44.708;37.644;2023-04-24T06:36:38;15.12;68.81
75786;DHT22;64402;44.708;37.644;2023-04-24T06:39:04;15.16;68.41
75786;DHT22;64402;44.708;37.644;2023-04-24T06:41:31;15.19;68.82
75786;DHT22;64402;44.708;37.644;2023-04-24T06:43:57;15.21;68.20
75786;DHT22;64402;44.708;37.644;2023-04-24T06:46:23;15.28;69.16
75786;DHT22;64402;44.708;37.644;2023-04-24T06:48:53;15.42;70.15
75786;DHT22;64402;44.708;37.644;2023-04-24T06:51:25;15.56;69.71
75786;DHT22;64402;44.708;37.644;2023-04-24T06:53:53;15.70;69.10
75786;DHT22;64402;44.708;37.644;2023-04-24T06:56:20;15.68;68.39
75786;DHT22;64402;44.708;37.644;2023-04-24T06:58:47;15.54;69.92
75786;DHT22;64402;44.708;37.644;2023-04-24T07:01:13;15.44;70.46
75786;DHT22;64402;44.708;37.644;2023-04-24T07:03:40;15.39;69.98
75786;DHT22;64402;44.708;37.644;2023-04-24T07:06:06;15.26;70.74
75786;DHT22;64402;44.708;37.644;2023-04-24T07:08:32;15.17;71.47
75786;DHT22;64402;44.708;37.644;2023-04-24T07:10:59;15.28;71.54
75786;DHT22;64402;44.708;37.644;2023-04-24T07:13:26;15.30;71.37
75786;DHT22;64402;44.708;37.644;2023-04-24T07:15:54;15.23;71.20
75786;DHT22;64402;44.708;37.644;2023-04-24T07:18:22;15.26;71.69
75786;DHT22;64402;44.708;37.644;2023-04-24T07:20:48;15.34;71.23
75786;DHT22;64402;44.708;37.644;2023-04-24T07:23:19;15.37;70.99
75786;DHT22;64402;44.708;37.644;2023-04-24T07:25:45;15.37;71.97
75786;DHT22;64402;44.708;37.644;2023-04-24T07:28:12;15.53;71.26
75786;DHT22;64402;44.708;37.644;2023-04-24T07:30:39;15.82;71.01
75786;DHT22;64402;44.708;37.644;2023-04-24T07:33:05;16.07;69.21
75786;DHT22;64402;44.708;37.644;2023-04-24T07:35:33;16.40;68.42
75786;DHT22;64402;44.708;37.644;2023-04-24T07:38:00;16.63;67.68
75786;DHT22;64402;44.708;37.644;2023-04-24T07:40:27;16.79;68.10
75786;DHT22;64402;44.708;37.644;2023-04-24T07:42:53;16.94;68.31
75786;DHT22;64402;44.708;37.644;2023-04-24T07:45:20;17.06;67.11
75786;DHT22;64402;44.708;37.644;2023-04-24T07:47:46;16.89;68.06
75786;DHT22;64402;44.708;37.644;2023-04-24T07:50:12;16.81;67.66
75786;DHT22;64402;44.708;37.644;2023-04-24T07:52:39;16.84;66.97
75786;DHT22;64402;44.708;37.644;2023-04-24T07:55:05;16.72;67.01
75786;DHT22;64402;44.708;37.644;2023-04-24T07:57:32;16.77;66.79
75786;DHT22;64402;44.708;37.644;2023-04-24T08:00:00;16.61;66.34
75786;DHT22;64402;44.708;37.644;2023-04-24T08:02:26;16.70;66.89
75786;DHT22;64402;44.708;37.644;2023-04-24T08:04:53;16.81;68.05
75786;DHT22;64402;44.708;37.644;2023-04-24T08:07:23;17.05;66.71
75786;DHT22;64402;44.708;37.644;2023-04-24T08:09:49;17.19;65.95
75786;DHT22;64402;44.708;37.644;2023-04-24T08:12:15;17.30;66.40
75786;DHT22;64402;44.708;37.644;2023-04-24T08:14:42;17.32;67.06
75786;DHT22;64402;44.708;37.644;2023-04-24T08:17:08;17.25;64.42
75786;DHT22;64402;44.708;37.644;2023-04-24T08:19:34;16.96;65.11
75786;DHT22;64402;44.708;37.644;2023-04-24T08:22:01;16.50;66.86
75786;DHT22;64402;44.708;37.644;2023-04-24T08:24:27;16.07;67.91
75786;DHT22;64402;44.708;37.644;2023-04-24T08:26:53;15.74;70.58
75786;DHT22;64402;44.708;37.644;2023-04-24T08:29:22;15.74;71.01
75786;DHT22;64402;44.708;37.644;2023-04-24T08:31:48;15.93;70.13
75786;DHT22;64402;44.708;37.644;2023-04-24T08:34:14;15.85;69.08
75786;DHT22;64402;44.708;37.644;2023-04-24T08:36:40;15.83;70.17
75786;DHT22;64402;44.708;37.644;2023-04-24T08:39:06;15.82;69.76
75786;DHT22;64402;44.708;37.644;2023-04-24T08:41:34;15.74;70.29
75786;DHT22;64402;44.708;37.644;2023-04-24T08:44:01;15.72;70.27
75786;DHT22;64402;44.708;37.644;2023-04-24T08:46:29;15.59;71.00
75786;DHT22;64402;44.708;37.644;2023-04-24T08:48:56;15.40;72.32
75786;DHT22;64402;44.708;37.644;2023-04-24T08:51:23;15.29;72.58
75786;DHT22;64402;44.708;37.644;2023-04-24T08:53:53;15.08;73.31
75786;DHT22;64402;44.708;37.644;2023-04-24T08:56:21;15.08;73.13
75786;DHT22;64402;44.708;37.644;2023-04-24T08:58:53;14.96;74.67
75786;DHT22;64402;44.708;37.644;2023-04-24T09:01:20;15.13;73.99
75786;DHT22;64402;44.708;37.644;2023-04-24T09:03:48;15.12;72.51
75786;DHT22;64402;44.708;37.644;2023-04-24T09:06:17;15.04;73.65
75786;DHT22;64402;44.708;37.644;2023-04-24T09:08:45;15.18;73.75
75786;DHT22;64402;44.708;37.644;2023-04-24T09:11:12;15.27;74.38
75786;DHT22;64402;44.708;37.644;2023-04-24T09:13:38;15.24;72.84
75786;DHT22;64402;44.708;37.644;2023-04-24T09:16:05;15.13;73.93
75786;DHT22;64402;44.708;37.644;2023-04-24T09:18:31;15.08;74.70
75786;DHT22;64402;44.708;37.644;2023-04-24T09:21:07;15.00;74.24
75786;DHT22;64402;44.708;37.644;2023-04-24T09:23:33;15.03;76.02
75786;DHT22;64402;44.708;37.644;2023-04-24T09:26:01;15.02;74.93
75786;DHT22;64402;44.708;37.644;2023-04-24T09:28:39;15.11;76.39
75786;DHT22;64402;44.708;37.644;2023-04-24T09:31:06;15.24;76.77
75786;DHT22;64402;44.708;37.644;2023-04-24T09:33:33;15.28;78.08
75786;DHT22;64402;44.708;37.644;2023-04-24T09:36:00;15.41;77.01
75786;DHT22;64402;44.708;37.644;2023-04-24T09:38:34;15.39;74.25
75786;DHT22;64402;44.708;37.644;2023-04-24T09:41:06;15.45;75.03
75786;DHT22;64402;44.708;37.644;2023-04-24T09:43:34;15.44;75.27
75786;DHT22;64402;44.708;37.644;2023-04-24T09:46:05;15.39;76.57
75786;DHT22;64402;44.708;37.644;2023-04-24T09:48:36;15.16;77.24
75786;DHT22;64402;44.708;37.644;2023-04-24T09:51:05;15.03;77.82
75786;DHT22;64402;44.708;37.644;2023-04-24T09:53:37;14.91;77.26
75786;DHT22;64402;44.708;37.644;2023-04-24T09:56:09;14.78;78.48
75786;DHT22;64402;44.708;37.644;2023-04-24T09:58:36;14.75;77.90
75786;DHT22;64402;44.708;37.644;2023-04-24T10:01:03;14.77;78.63
75786;DHT22;64402;44.708;37.644;2023-04-24T10:03:30;14.75;77.51
75786;DHT22;64402;44.708;37.644;2023-04-24T10:06:03;14.87;77.74
75786;DHT22;64402;44.708;37.644;2023-04-24T10:08:36;15.01;78.51
75786;DHT22;64402;44.708;37.644;2023-04-24T10:11:02;15.06;78.21
75786;DHT22;64402;44.708;37.644;2023-04-24T10:13:29;14.95;78.51
75786;DHT22;64402;44.708;37.644;2023-04-24T10:15:59;14.93;78.92
75786;DHT22;64402;44.708;37.644;2023-04-24T10:18:27;14.97;78.56
75786;DHT22;64402;44.708;37.644;2023-04-24T10:20:53;15.12;78.18
75786;DHT22;64402;44.708;37.644;2023-04-24T10:23:20;15.09;77.93
75786;DHT22;64402;44.708;37.644;2023-04-24T10:25:48;15.08;78.32
75786;DHT22;64402;44.708;37.644;2023-04-24T10:28:16;15.08;78.35
75786;DHT22;64402;44.708;37.644;2023-04-24T10:30:44;15.18;76.86
75786;DHT22;64402;44.708;37.644;2023-04-24T10:33:11;15.06;78.24
75786;DHT22;64402;44.708;37.644;2023-04-24T10:35:45;15.07;78.01
75786;DHT22;64402;44.708;37.644;2023-04-24T10:38:18;15.04;78.30
75786;DHT22;64402;44.708;37.644;2023-04-24T10:40:50;15.00;76.66
75786;DHT22;64402;44.708;37.644;2023-04-24T10:43:17;14.91;78.09
75786;DHT22;64402;44.708;37.644;2023-04-24T10:46:05;14.87;78.87
75786;DHT22;64402;44.708;37.644;2023-04-24T10:48:32;14.73;77.33
75786;DHT22;64402;44.708;37.644;2023-04-24T10:50:58;14.72;78.88
75786;DHT22;64402;44.708;37.644;2023-04-24T10:53:28;14.93;79.52
75786;DHT22;64402;44.708;37.644;2023-04-24T10:56:05;15.12;77.66
75786;DHT22;64402;44.708;37.644;2023-04-24T10:58:43;15.23;78.03
75786;DHT22;64402;44.708;37.644;2023-04-24T11:01:31;15.07;77.35
75786;DHT22;64402;44.708;37.644;2023-04-24T11:04:00;15.13;77.63
75786;DHT22;64402;44.708;37.644;2023-04-24T11:06:33;15.25;77.47
75786;DHT22;64402;44.708;37.644;2023-04-24T11:09:10;15.24;77.63
75786;DHT22;64402;44.708;37.644;2023-04-24T11:11:45;15.31;77.79
75786;DHT22;64402;44.708;37.644;2023-04-24T11:14:15;15.42;77.63
75786;DHT22;64402;44.708;37.644;2023-04-24T11:16:52;15.41;77.39
75786;DHT22;64402;44.708;37.644;2023-04-24T11:19:26;15.33;77.50
75786;DHT22;64402;44.708;37.644;2023-04-24T11:21:59;15.52;76.70
75786;DHT22;64402;44.708;37.644;2023-04-24T11:24:40;15.60;75.43
75786;DHT22;64402;44.708;37.644;2023-04-24T11:27:20;15.68;75.03
75786;DHT22;64402;44.708;37.644;2023-04-24T11:29:49;15.70;74.74
75786;DHT22;64402;44.708;37.644;2023-04-24T11:35:00;15.98;75.99
75786;DHT22;64402;44.708;37.644;2023-04-24T11:37:33;16.08;75.79
75786;DHT22;64402;44.708;37.644;2023-04-24T11:40:01;16.16;74.48
75786;DHT22;64402;44.708;37.644;2023-04-24T11:42:27;16.22;75.12
75786;DHT22;64402;44.708;37.644;2023-04-24T11:44:55;16.21;74.76
75786;DHT22;64402;44.708;37.644;2023-04-24T11:47:31;16.25;74.78
75786;DHT22;64402;44.708;37.644;2023-04-24T11:50:00;16.30;75.25
75786;DHT22;64402;44.708;37.644;2023-04-24T11:52:27;16.39;74.94
75786;DHT22;64402;44.708;37.644;2023-04-24T11:54:54;16.43;74.64
75786;DHT22;64402;44.708;37.644;2023-04-24T11:57:21;16.54;74.99
75786;DHT22;64402;44.708;37.644;2023-04-24T11:59:48;16.60;74.61
75786;DHT22;64402;44.708;37.644;2023-04-24T12:02:25;16.63;73.81
75786;DHT22;64402;44.708;37.644;2023-04-24T12:04:53;16.76;73.53
75786;DHT22;64402;44.708;37.644;2023-04-24T12:07:19;16.82;73.60
75786;DHT22;64402;44.708;37.644;2023-04-24T12:09:56;16.95;72.93
75786;DHT22;64402;44.708;37.644;2023-04-24T12:12:28;17.07;72.42
75786;DHT22;64402;44.708;37.644;2023-04-24T12:14:58;17.19;70.81
75786;DHT22;64402;44.708;37.644;2023-04-24T12:17:29;17.00;70.55
75786;DHT22;64402;44.708;37.644;2023-04-24T12:19:59;17.01;71.06
75786;DHT22;64402;44.708;37.644;2023-04-24T12:22:27;17.15;71.77
75786;DHT22;64402;44.708;37.644;2023-04-24T12:24:59;17.16;71.26
75786;DHT22;64402;44.708;37.644;2023-04-24T12:27:31;17.33;71.30
75786;DHT22;64402;44.708;37.644;2023-04-24T12:29:59;17.53;70.23
75786;DHT22;64402;44.708;37.644;2023-04-24T12:32:26;17.39;68.94
75786;DHT22;64402;44.708;37.644;2023-04-24T12:34:54;17.25;70.16
75786;DHT22;64402;44.708;37.644;2023-04-24T12:37:23;17.19;69.57
75786;DHT22;64402;44.708;37.644;2023-04-24T12:40:00;16.98;70.40
75786;DHT22;64402;44.708;37.644;2023-04-24T12:42:30;16.84;71.53
75786;DHT22;64402;44.708;37.644;2023-04-24T12:44:59;16.50;71.15
75786;DHT22;64402;44.708;37.644;2023-04-24T12:47:27;16.32;72.61
75786;DHT22;64402;44.708;37.644;2023-04-24T12:49:54;16.31;72.62
75786;DHT22;64402;44.708;37.644;2023-04-24T12:52:21;16.32;73.56
75786;DHT22;64402;44.708;37.644;2023-04-24T12:54:47;16.33;74.16
75786;DHT22;64402;44.708;37.644;2023-04-24T12:57:14;16.21;74.37
75786;DHT22;64402;44.708;37.644;2023-04-24T12:59:40;16.14;74.84
75786;DHT22;64402;44.708;37.644;2023-04-24T13:02:07;16.05;75.96
75786;DHT22;64402;44.708;37.644;2023-04-24T13:04:34;15.96;75.34
75786;DHT22;64402;44.708;37.644;2023-04-24T13:07:00;15.98;76.42
75786;DHT22;64402;44.708;37.644;2023-04-24T13:09:27;15.81;76.24
75786;DHT22;64402;44.708;37.644;2023-04-24T13:11:53;15.86;76.14
75786;DHT22;64402;44.708;37.644;2023-04-24T13:14:20;15.88;76.38
75786;DHT22;64402;44.708;37.644;2023-04-24T13:16:46;15.78;76.55
75786;DHT22;64402;44.708;37.644;2023-04-24T13:19:12;15.85;76.27
75786;DHT22;64402;44.708;37.644;2023-04-24T13:21:38;15.84;77.00
75786;DHT22;64402;44.708;37.644;2023-04-24T13:24:05;15.83;76.79
75786;DHT22;64402;44.708;37.644;2023-04-24T13:26:33;15.83;76.74
75786;DHT22;64402;44.708;37.644;2023-04-24T13:29:00;15.70;77.76
75786;DHT22;64402;44.708;37.644;2023-04-24T13:31:26;15.56;78.84
75786;DHT22;64402;44.708;37.644;2023-04-24T13:33:52;15.42;79.82
75786;DHT22;64402;44.708;37.644;2023-04-24T13:36:18;15.42;80.14
75786;DHT22;64402;44.708;37.644;2023-04-24T13:38:44;15.40;80.33
75786;DHT22;64402;44.708;37.644;2023-04-24T13:41:10;15.37;80.21
75786;DHT22;64402;44.708;37.644;2023-04-24T13:43:37;15.45;79.43
75786;DHT22;64402;44.708;37.644;2023-04-24T13:46:03;15.40;81.13
75786;DHT22;64402;44.708;37.644;2023-04-24T13:48:30;15.32;78.17
75786;DHT22;64402;44.708;37.644;2023-04-24T13:50:57;15.13;78.86
75786;DHT22;64402;44.708;37.644;2023-04-24T13:53:23;15.01;79.50
75786;DHT22;64402;44.708;37.644;2023-04-24T13:55:50;14.81;80.29
75786;DHT22;64402;44.708;37.644;2023-04-24T13:58:16;14.85;81.57
75786;DHT22;64402;44.708;37.644;2023-04-24T14:00:42;14.77;81.81
75786;DHT22;64402;44.708;37.644;2023-04-24T14:03:09;14.69;81.31
75786;DHT22;64402;44.708;37.644;2023-04-24T14:05:35;14.29;81.30
75786;DHT22;64402;44.708;37.644;2023-04-24T14:08:02;14.21;81.47
75786;DHT22;64402;44.708;37.644;2023-04-24T14:10:28;14.11;81.92
75786;DHT22;64402;44.708;37.644;2023-04-24T14:12:54;13.95;82.17
75786;DHT22;64402;44.708;37.644;2023-04-24T14:15:21;13.83;82.49
75786;DHT22;64402;44.708;37.644;2023-04-24T14:17:48;13.75;82.82
75786;DHT22;64402;44.708;37.644;2023-04-24T14:20:15;13.70;83.11
75786;DHT22;64402;44.708;37.644;2023-04-24T14:22:42;13.67;83.55
75786;DHT22;64402;44.708;37.644;2023-04-24T14:25:09;13.69;84.11
75786;DHT22;64402;44.708;37.644;2023-04-24T14:27:35;13.65;83.38
75786;DHT22;64402;44.708;37.644;2023-04-24T14:30:02;13.65;83.45
75786;DHT22;64402;44.708;37.644;2023-04-24T14:32:29;13.65;83.74
75786;DHT22;64402;44.708;37.644;2023-04-24T14:34:55;13.61;83.40
75786;DHT22;64402;44.708;37.644;2023-04-24T14:37:22;13.53;83.14
75786;DHT22;64402;44.708;37.644;2023-04-24T14:39:48;13.51;83.45
75786;DHT22;64402;44.708;37.644;2023-04-24T14:42:14;13.45;83.80
75786;DHT22;64402;44.708;37.644;2023-04-24T14:44:42;13.37;84.29
75786;DHT22;64402;44.708;37.644;2023-04-24T14:47:09;13.30;83.85
75786;DHT22;64402;44.708;37.644;2023-04-24T14:49:35;13.18;84.08
75786;DHT22;64402;44.708;37.644;2023-04-24T14:52:01;13.11;85.19
75786;DHT22;64402;44.708;37.644;2023-04-24T14:54:28;13.07;84.64
75786;DHT22;64402;44.708;37.644;2023-04-24T14:56:54;13.04;85.38
75786;DHT22;64402;44.708;37.644;2023-04-24T14:59:22;12.97;86.10
75786;DHT22;64402;44.708;37.644;2023-04-24T15:01:49;12.91;86.22
75786;DHT22;64402;44.708;37.644;2023-04-24T15:04:16;12.88;86.74
75786;DHT22;64402;44.708;37.644;2023-04-24T15:06:42;12.84;86.59
75786;DHT22;64402;44.708;37.644;2023-04-24T15:09:08;12.84;86.87
75786;DHT22;64402;44.708;37.644;2023-04-24T15:11:35;12.84;86.95
75786;DHT22;64402;44.708;37.644;2023-04-24T15:14:01;12.79;87.15
75786;DHT22;64402;44.708;37.644;2023-04-24T15:16:27;12.75;87.14
75786;DHT22;64402;44.708;37.644;2023-04-24T15:18:53;12.69;87.37
75786;DHT22;64402;44.708;37.644;2023-04-24T15:21:19;12.60;88.12
75786;DHT22;64402;44.708;37.644;2023-04-24T15:23:45;12.60;88.41